Time;durP1;ratioP1;P1;durP2;ratioP2;P2;SDS_P1;SDS_P2;PMS_P1;PMS_P2;Temp;Humidity;BMP_temperature;BMP_pressure;BME280_temperature;BME280_humidity;BME280_pressure;Samples;Min_cycle;Max_cycle;Signal;HPM_P1;HPM_P2
2022/05/25 00:02:08;;;;;;;9.13;8.23;;;9.70;99.90;;;;;;5069609;28;20044;-66
2022/05/25 00:04:34;;;;;;;10.48;7.65;;;9.60;99.90;;;;;;5052252;28;20055;-66
2022/05/25 00:06:59;;;;;;;9.68;8.73;;;9.60;99.90;;;;;;5074453;28;20400;-67
2022/05/25 00:09:25;;;;;;;10.18;8.18;;;9.60;99.90;;;;;;5053139;28;20045;-66
2022/05/25 00:11:51;;;;;;;9.35;8.45;;;9.60;99.90;;;;;;5055967;28;20053;-66
2022/05/25 00:14:17;;;;;;;9.13;8.30;;;9.60;99.90;;;;;;5055121;28;20053;-66
2022/05/25 00:16:43;;;;;;;9.50;8.50;;;9.60;99.90;;;;;;5073309;28;20121;-65
2022/05/25 00:21:52;;;;;;;10.82;8.23;;;9.60;99.90;;;;;;5069535;28;20060;-65
2022/05/25 00:24:18;;;;;;;8.88;7.97;;;9.60;99.90;;;;;;5073714;28;20052;-66
2022/05/25 00:26:43;;;;;;;8.73;7.93;;;9.60;99.90;;;;;;5073621;28;20500;-65
2022/05/25 00:29:09;;;;;;;8.95;8.10;;;9.50;99.90;;;;;;5073447;28;20432;-65
2022/05/25 00:31:35;;;;;;;10.55;9.48;;;9.50;99.90;;;;;;5053933;28;20045;-66
2022/05/25 00:34:00;;;;;;;9.98;9.07;;;9.50;99.90;;;;;;5072982;28;20049;-66
2022/05/25 00:36:26;;;;;;;9.52;8.52;;;9.50;99.90;;;;;;5055273;28;20052;-66
2022/05/25 00:38:52;;;;;;;11.30;9.02;;;9.50;99.90;;;;;;5048097;28;20057;-65
2022/05/25 00:41:22;;;;;;;8.93;8.02;;;9.50;99.90;;;;;;5071877;28;20052;-66
2022/05/25 00:43:48;;;;;;;8.90;8.02;;;9.50;99.90;;;;;;5053366;28;20076;-66
2022/05/25 00:46:17;;;;;;;8.07;7.35;;;9.50;99.90;;;;;;5070780;28;20527;-66
2022/05/25 00:49:05;;;;;;;10.35;8.02;;;9.50;99.90;;;;;;5055113;28;20132;-66
2022/05/25 00:51:49;;;;;;;8.63;7.40;;;9.50;99.90;;;;;;5048400;28;20461;-67
2022/05/25 00:54:20;;;;;;;7.57;6.95;;;9.50;99.90;;;;;;5072054;28;20060;-65
2022/05/25 00:56:49;;;;;;;7.90;7.13;;;9.50;99.90;;;;;;5054081;28;20131;-65
2022/05/25 00:59:20;;;;;;;7.90;6.65;;;9.40;99.90;;;;;;5055986;28;20048;-65
2022/05/25 01:01:45;;;;;;;7.25;6.65;;;9.50;99.90;;;;;;5072380;28;20048;-66
2022/05/25 01:04:12;;;;;;;7.30;6.53;;;9.40;99.90;;;;;;5054177;28;20059;-67
2022/05/25 01:06:50;;;;;;;7.30;6.60;;;9.40;99.90;;;;;;5073669;28;20075;-66
2022/05/25 01:09:47;;;;;;;7.28;6.57;;;9.40;99.90;;;;;;5065730;28;20049;-66
2022/05/25 01:12:26;;;;;;;6.10;5.50;;;9.40;99.90;;;;;;5057680;28;20088;-66
2022/05/25 01:15:27;;;;;;;6.88;6.28;;;9.30;99.90;;;;;;5069770;28;20084;-64
2022/05/25 01:18:18;;;;;;;6.18;5.65;;;9.30;99.90;;;;;;5072732;28;20053;-68
2022/05/25 01:20:54;;;;;;;7.05;6.22;;;9.30;99.90;;;;;;5052416;28;20049;-67
2022/05/25 01:23:51;;;;;;;7.15;6.47;;;9.30;99.90;;;;;;5070258;28;20059;-66
2022/05/25 01:26:45;;;;;;;7.22;6.53;;;9.20;99.90;;;;;;5070431;28;20048;-65
2022/05/25 01:29:33;;;;;;;9.43;7.00;;;9.20;99.90;;;;;;5070568;28;20527;-65
2022/05/25 01:32:26;;;;;;;7.28;6.68;;;9.20;99.90;;;;;;5072625;28;20084;-66
2022/05/25 01:35:00;;;;;;;5.97;5.47;;;9.20;99.90;;;;;;5067679;28;20052;-66
2022/05/25 01:37:49;;;;;;;6.72;6.00;;;9.20;99.90;;;;;;5063477;28;20094;-66
2022/05/25 01:40:24;;;;;;;7.88;6.90;;;9.10;99.90;;;;;;5054417;28;20126;-65
2022/05/25 01:42:59;;;;;;;9.02;6.75;;;9.10;99.90;;;;;;5070576;28;20465;-67
2022/05/25 01:45:29;;;;;;;7.45;6.47;;;9.10;99.90;;;;;;5065820;28;20582;-66
2022/05/25 01:48:00;;;;;;;8.63;7.05;;;9.10;99.90;;;;;;5069604;28;20072;-65
2022/05/25 01:50:34;;;;;;;8.27;7.43;;;9.10;99.90;;;;;;5071011;28;20117;-66
2022/05/25 01:53:02;;;;;;;7.85;7.15;;;9.00;99.90;;;;;;5052802;28;20053;-66
2022/05/25 01:55:43;;;;;;;6.68;6.07;;;9.00;99.90;;;;;;5052208;28;20061;-66
2022/05/25 01:58:15;;;;;;;9.57;7.35;;;9.00;99.90;;;;;;5070449;28;20071;-67
2022/05/25 02:00:46;;;;;;;7.28;6.57;;;9.00;99.90;;;;;;5070271;28;20391;-66
2022/05/25 02:06:19;;;;;;;8.23;7.45;;;9.00;99.90;;;;;;5071366;28;20044;-66
2022/05/25 02:08:59;;;;;;;10.73;8.70;;;9.00;99.90;;;;;;5050131;28;20143;-66
2022/05/25 02:11:28;;;;;;;9.73;7.68;;;9.00;99.90;;;;;;5072831;28;20052;-67
2022/05/25 02:13:59;;;;;;;9.85;8.00;;;9.00;99.90;;;;;;5050736;28;20060;-66
2022/05/25 02:16:55;;;;;;;9.20;7.85;;;8.90;99.90;;;;;;5052596;28;20057;-66
2022/05/25 02:19:49;;;;;;;8.77;7.85;;;9.00;99.90;;;;;;5072736;28;20063;-66
2022/05/25 02:22:20;;;;;;;9.35;8.35;;;9.00;99.90;;;;;;5070457;28;20562;-68
2022/05/25 02:24:45;;;;;;;9.60;8.60;;;8.90;99.90;;;;;;5068988;28;20484;-66
2022/05/25 02:27:32;;;;;;;8.52;7.50;;;8.90;99.90;;;;;;5054058;28;20080;-66
2022/05/25 02:30:08;;;;;;;11.52;8.73;;;8.80;99.90;;;;;;5053303;28;20063;-67
2022/05/25 02:32:55;;;;;;;11.05;9.60;;;8.90;99.90;;;;;;5057987;28;20052;-66
2022/05/25 02:35:22;;;;;;;10.65;8.65;;;8.90;99.90;;;;;;5074768;28;20461;-66
2022/05/25 02:37:51;;;;;;;10.70;8.50;;;8.90;99.90;;;;;;5071206;28;20052;-65
2022/05/25 02:40:17;;;;;;;10.07;8.98;;;8.90;99.90;;;;;;5056389;28;20056;-65
2022/05/25 02:42:43;;;;;;;10.32;9.27;;;8.90;99.90;;;;;;5055754;28;20053;-65
2022/05/25 02:45:11;;;;;;;10.02;9.02;;;8.90;99.90;;;;;;5056022;28;20040;-66
2022/05/25 02:47:37;;;;;;;11.30;9.75;;;8.90;99.90;;;;;;5056608;28;20427;-67
2022/05/25 02:50:03;;;;;;;13.07;10.30;;;8.90;99.90;;;;;;5059299;28;20052;-65
2022/05/25 02:52:29;;;;;;;11.93;10.18;;;8.90;99.90;;;;;;5057364;28;20088;-65
2022/05/25 02:54:55;;;;;;;12.23;9.32;;;8.90;99.90;;;;;;5074327;28;20087;-65
2022/05/25 02:57:20;;;;;;;12.13;10.13;;;8.90;99.90;;;;;;5054635;28;20495;-65
2022/05/25 02:59:46;;;;;;;12.77;10.40;;;8.90;99.90;;;;;;5072070;28;20530;-65
2022/05/25 03:02:12;;;;;;;13.57;10.75;;;8.90;99.90;;;;;;5056194;28;20401;-65
2022/05/25 03:04:40;;;;;;;14.48;10.52;;;8.90;99.90;;;;;;5075727;28;20128;-65
2022/05/25 03:07:07;;;;;;;12.35;10.30;;;8.90;99.90;;;;;;5072977;28;20052;-65
2022/05/25 03:09:35;;;;;;;11.07;9.80;;;8.90;99.90;;;;;;5074212;28;20057;-65
2022/05/25 03:12:02;;;;;;;13.20;10.63;;;8.90;99.90;;;;;;5075950;28;20113;-65
2022/05/25 03:14:28;;;;;;;10.98;9.63;;;8.80;99.90;;;;;;5075052;28;20044;-65
2022/05/25 03:16:54;;;;;;;12.05;10.50;;;8.80;99.90;;;;;;5053365;28;20201;-66
2022/05/25 03:19:20;;;;;;;13.20;10.15;;;8.80;99.90;;;;;;5042113;28;20131;-65
2022/05/25 03:21:45;;;;;;;11.52;10.07;;;8.80;99.90;;;;;;5055330;28;20107;-66
2022/05/25 03:24:11;;;;;;;14.35;11.32;;;8.80;99.90;;;;;;5054535;28;20110;-65
2022/05/25 03:26:37;;;;;;;13.32;11.05;;;8.80;99.90;;;;;;5055014;28;20048;-65
2022/05/25 03:29:02;;;;;;;14.70;11.85;;;8.80;99.90;;;;;;5075521;28;20522;-66
2022/05/25 03:31:28;;;;;;;15.10;11.23;;;8.80;99.90;;;;;;5073258;28;20076;-65
2022/05/25 03:33:53;;;;;;;15.05;11.77;;;8.90;99.90;;;;;;5057240;28;20056;-66
2022/05/25 03:36:19;;;;;;;14.07;11.10;;;8.80;99.90;;;;;;5055650;28;20123;-66
2022/05/25 03:38:44;;;;;;;12.90;11.50;;;8.80;99.90;;;;;;5057056;28;20059;-66
2022/05/25 03:41:10;;;;;;;15.45;11.35;;;8.90;99.90;;;;;;5074803;28;20412;-65
2022/05/25 03:43:38;;;;;;;15.93;11.80;;;8.90;99.90;;;;;;5056871;28;20167;-65
2022/05/25 03:46:04;;;;;;;13.70;11.95;;;8.80;99.90;;;;;;5055813;28;20087;-66
2022/05/25 03:48:30;;;;;;;12.63;11.18;;;8.90;99.90;;;;;;5034277;28;20485;-65
2022/05/25 03:50:55;;;;;;;13.73;11.15;;;8.90;99.90;;;;;;5054896;28;20059;-65
2022/05/25 03:53:21;;;;;;;14.25;11.27;;;8.90;99.90;;;;;;5056633;28;20041;-65
2022/05/25 03:55:47;;;;;;;14.05;11.00;;;8.90;99.90;;;;;;5073915;28;20048;-66
2022/05/25 03:58:13;;;;;;;14.68;12.07;;;8.90;99.90;;;;;;5073661;28;20044;-67
2022/05/25 04:00:39;;;;;;;14.98;11.48;;;8.90;99.90;;;;;;5055235;28;20052;-66
2022/05/25 04:03:04;;;;;;;16.27;12.77;;;8.90;99.90;;;;;;5073567;28;20063;-65
2022/05/25 04:05:32;;;;;;;14.00;11.55;;;9.00;99.90;;;;;;5054593;28;20052;-66
2022/05/25 04:07:58;;;;;;;13.05;10.52;;;9.00;99.90;;;;;;5057000;28;20373;-66
2022/05/25 04:10:25;;;;;;;17.40;13.10;;;9.00;99.90;;;;;;5056286;28;20052;-66
2022/05/25 04:12:51;;;;;;;15.32;12.23;;;9.00;99.90;;;;;;5073836;28;20060;-65
2022/05/25 04:15:20;;;;;;;14.57;12.07;;;9.10;99.90;;;;;;5055006;28;20067;-66
2022/05/25 04:17:45;;;;;;;15.25;11.48;;;9.10;99.90;;;;;;5074327;28;20165;-66
2022/05/25 04:20:12;;;;;;;15.00;11.60;;;9.10;99.90;;;;;;5055672;28;20060;-66
2022/05/25 04:22:38;;;;;;;15.85;11.88;;;9.20;99.90;;;;;;5056743;28;20493;-65
2022/05/25 04:25:07;;;;;;;16.33;12.93;;;9.20;99.90;;;;;;5056590;28;20052;-66
2022/05/25 04:27:33;;;;;;;12.80;11.35;;;9.30;99.90;;;;;;5072148;28;20447;-65
2022/05/25 04:29:59;;;;;;;19.88;13.50;;;9.30;99.90;;;;;;5055022;28;20063;-66
2022/05/25 04:32:25;;;;;;;15.82;12.02;;;9.30;99.90;;;;;;5055005;28;20053;-66
2022/05/25 04:34:50;;;;;;;17.17;12.95;;;9.40;99.90;;;;;;5056204;28;20105;-66
2022/05/25 04:40:00;;;;;;;14.98;12.85;;;9.50;99.90;;;;;;5070793;28;20500;-65
2022/05/25 04:42:29;;;;;;;16.27;13.15;;;9.50;99.90;;;;;;5054182;28;20045;-65
2022/05/25 04:44:59;;;;;;;14.60;11.65;;;9.60;99.90;;;;;;5074296;28;20060;-65
2022/05/25 04:47:33;;;;;;;18.48;13.27;;;9.60;99.90;;;;;;5053691;28;20493;-66
2022/05/25 04:50:00;;;;;;;15.57;12.15;;;9.70;99.90;;;;;;5056097;28;20099;-65
2022/05/25 04:52:27;;;;;;;15.18;12.25;;;9.70;99.90;;;;;;5071734;28;20489;-66
2022/05/25 04:54:53;;;;;;;13.95;11.95;;;9.80;99.90;;;;;;5069739;28;20397;-67
2022/05/25 04:57:19;;;;;;;15.85;13.38;;;9.80;99.90;;;;;;5056083;28;20053;-65
2022/05/25 04:59:49;;;;;;;16.35;12.27;;;9.90;99.90;;;;;;5072807;28;20044;-65
2022/05/25 05:02:14;;;;;;;14.10;12.63;;;9.90;99.90;;;;;;5049750;28;20057;-65
2022/05/25 05:04:40;;;;;;;17.05;13.02;;;10.00;99.90;;;;;;5069111;28;20159;-66
2022/05/25 05:07:05;;;;;;;13.80;12.30;;;10.10;99.90;;;;;;5071456;28;20047;-66
2022/05/25 05:09:35;;;;;;;17.00;12.30;;;10.10;99.90;;;;;;5050167;28;20087;-66
2022/05/25 05:12:01;;;;;;;17.10;11.77;;;10.20;99.90;;;;;;5051357;28;20112;-68
2022/05/25 05:14:34;;;;;;;18.10;12.82;;;10.30;99.90;;;;;;5127876;27;20391;-65
2022/05/25 05:17:01;;;;;;;18.27;13.20;;;10.40;99.90;;;;;;5130968;27;20046;-65
2022/05/25 05:19:28;;;;;;;13.75;12.25;;;10.40;99.90;;;;;;5144592;27;20059;-65
2022/05/25 05:21:55;;;;;;;15.52;11.98;;;10.50;99.90;;;;;;5098328;28;20109;-66
2022/05/25 05:24:21;;;;;;;14.90;12.65;;;10.60;99.90;;;;;;5138952;27;20067;-66
2022/05/25 05:26:47;;;;;;;14.23;12.73;;;10.70;99.90;;;;;;5097338;28;20052;-67
2022/05/25 05:29:14;;;;;;;15.43;12.02;;;10.80;99.90;;;;;;5155141;27;20047;-66
2022/05/25 05:31:39;;;;;;;15.30;11.65;;;10.90;99.90;;;;;;5100504;28;20083;-67
2022/05/25 05:34:06;;;;;;;17.92;11.57;;;11.00;99.90;;;;;;5099281;28;20091;-67
2022/05/25 05:36:52;;;;;;;14.32;11.88;;;11.40;99.90;;;;;;5099302;28;20045;-67
2022/05/25 05:39:21;;;;;;;13.13;11.32;;;12.70;99.90;;;;;;5114961;28;20052;-66
2022/05/25 05:41:53;;;;;;;12.98;11.10;;;14.20;99.90;;;;;;5102260;28;20048;-68
2022/05/25 05:44:27;;;;;;;14.77;10.55;;;15.30;99.90;;;;;;5090658;28;20071;-67
2022/05/25 05:46:57;;;;;;;10.85;9.30;;;16.10;99.90;;;;;;5105728;28;20036;-67
2022/05/25 05:49:23;;;;;;;13.77;9.23;;;16.70;99.90;;;;;;5105357;28;20427;-66
2022/05/25 05:51:48;;;;;;;11.50;9.90;;;17.10;99.90;;;;;;5122166;28;20131;-66
2022/05/25 05:54:15;;;;;;;11.93;9.63;;;17.60;99.90;;;;;;5095817;28;20048;-66
2022/05/25 05:56:42;;;;;;;12.93;9.73;;;18.00;99.90;;;;;;5117390;27;20444;-69
2022/05/25 05:59:08;;;;;;;10.32;8.88;;;18.20;99.90;;;;;;5130410;27;20086;-67
2022/05/25 06:01:33;;;;;;;12.10;9.77;;;18.60;99.90;;;;;;5163382;27;20101;-68
2022/05/25 06:03:59;;;;;;;13.45;9.45;;;18.70;99.90;;;;;;5129500;28;20475;-67
2022/05/25 06:06:24;;;;;;;10.88;9.48;;;19.00;99.90;;;;;;5160601;27;20410;-68
2022/05/25 06:08:50;;;;;;;11.98;10.30;;;19.30;99.90;;;;;;5146737;27;20553;-66
2022/05/25 06:11:19;;;;;;;15.07;9.95;;;19.40;99.90;;;;;;5142674;27;20148;-67
2022/05/25 06:13:45;;;;;;;12.13;9.73;;;19.40;99.90;;;;;;5107886;28;20067;-66
2022/05/25 06:21:40;;;;;;;15.35;10.07;;;19.60;99.90;;;;;;5107975;28;20051;-66
2022/05/25 06:24:07;;;;;;;10.63;9.52;;;19.70;99.90;;;;;;5102363;28;20127;-65
2022/05/25 06:26:36;;;;;;;14.32;9.77;;;19.80;99.90;;;;;;5088756;28;20460;-66
2022/05/25 06:29:02;;;;;;;11.48;10.27;;;20.10;99.90;;;;;;5095260;28;20144;-66
2022/05/25 06:31:29;;;;;;;11.48;8.93;;;19.30;99.90;;;;;;5093702;28;20048;-65
2022/05/25 06:33:55;;;;;;;14.45;9.35;;;18.30;99.90;;;;;;5095324;28;20043;-66
2022/05/25 06:36:24;;;;;;;12.90;10.05;;;17.60;99.90;;;;;;5077599;28;20518;-69
2022/05/25 06:38:50;;;;;;;16.15;9.90;;;17.10;99.90;;;;;;5105496;28;20123;-67
2022/05/25 06:41:16;;;;;;;15.88;10.57;;;16.70;99.90;;;;;;5133049;27;20569;-66
2022/05/25 06:43:42;;;;;;;16.42;10.63;;;16.40;99.90;;;;;;5119049;27;20094;-68
2022/05/25 06:46:10;;;;;;;12.25;10.52;;;16.00;99.90;;;;;;5110733;28;20108;-66
2022/05/25 06:48:35;;;;;;;12.02;10.60;;;15.90;99.90;;;;;;5113649;28;20083;-67
2022/05/25 06:51:15;;;;;;;12.57;9.98;;;15.80;99.90;;;;;;5148908;27;20090;-66
2022/05/25 06:53:41;;;;;;;13.10;10.60;;;15.70;99.90;;;;;;5148789;27;20420;-66
2022/05/25 06:56:07;;;;;;;13.13;10.25;;;15.60;99.90;;;;;;5148994;27;20329;-68
2022/05/25 06:58:33;;;;;;;12.43;10.30;;;15.50;99.90;;;;;;5102240;28;20044;-66
2022/05/25 07:00:59;;;;;;;10.70;9.70;;;15.60;99.90;;;;;;5104461;28;20071;-67
2022/05/25 07:03:25;;;;;;;11.65;9.90;;;15.50;99.90;;;;;;5101865;28;20047;-68
2022/05/25 07:05:50;;;;;;;13.45;9.30;;;15.70;99.90;;;;;;5102494;28;20075;-67
2022/05/25 07:08:17;;;;;;;10.70;9.20;;;15.80;99.90;;;;;;5112150;28;20059;-68
2022/05/25 07:10:46;;;;;;;11.70;9.20;;;16.50;99.90;;;;;;5108122;28;20472;-67
2022/05/25 07:13:17;;;;;;;11.25;9.35;;;16.00;99.90;;;;;;5098561;28;20425;-68
2022/05/25 07:15:44;;;;;;;10.95;9.02;;;16.10;99.90;;;;;;5144152;27;20421;-66
2022/05/25 07:18:10;;;;;;;10.07;7.60;;;16.20;99.90;;;;;;5092560;28;20055;-66
2022/05/25 07:20:36;;;;;;;10.07;8.55;;;16.20;99.90;;;;;;5094572;28;20070;-65
2022/05/25 07:23:02;;;;;;;9.10;7.40;;;16.30;99.90;;;;;;5109619;28;20124;-66
2022/05/25 07:25:28;;;;;;;11.25;7.60;;;16.20;99.90;;;;;;5093000;28;20087;-66
2022/05/25 07:27:54;;;;;;;8.68;6.85;;;16.30;99.90;;;;;;5127276;27;20098;-66
2022/05/25 07:30:20;;;;;;;9.30;7.70;;;16.30;99.90;;;;;;5092569;28;20119;-66
2022/05/25 07:32:46;;;;;;;7.88;6.90;;;16.40;99.90;;;;;;5091869;28;20051;-66
2022/05/25 07:35:15;;;;;;;8.27;6.95;;;16.40;99.90;;;;;;5094084;28;20067;-67
2022/05/25 07:37:44;;;;;;;8.25;6.65;;;16.50;99.90;;;;;;5092467;28;20059;-67
2022/05/25 07:40:37;;;;;;;7.55;6.60;;;16.60;99.90;;;;;;5093289;28;20133;-65
2022/05/25 07:43:24;;;;;;;8.73;6.40;;;16.80;99.90;;;;;;5091878;28;20408;-66
2022/05/25 07:45:50;;;;;;;8.95;6.25;;;16.90;99.90;;;;;;5092137;28;20044;-65
2022/05/25 07:48:16;;;;;;;7.95;5.68;;;17.00;99.90;;;;;;5092593;28;20052;-70
2022/05/25 07:50:43;;;;;;;6.28;5.47;;;17.10;99.90;;;;;;5075819;28;20407;-66
2022/05/25 07:55:57;;;;;;;4.80;4.40;;;17.40;99.90;;;;;;5093543;28;20048;-65
2022/05/25 07:58:23;;;;;;;5.38;3.50;;;17.40;99.90;;;;;;5092286;28;20052;-67
2022/05/25 08:00:53;;;;;;;6.60;4.28;;;17.40;99.90;;;;;;5092037;28;20044;-66
2022/05/25 08:06:04;;;;;;;5.90;3.85;;;17.50;99.90;;;;;;5092414;28;20052;-65
2022/05/25 08:08:30;;;;;;;6.30;4.63;;;17.60;99.90;;;;;;5094075;28;20044;-65
2022/05/25 08:11:01;;;;;;;4.80;3.83;;;17.60;99.90;;;;;;5091766;28;20439;-65
2022/05/25 08:13:27;;;;;;;5.80;4.45;;;17.60;99.90;;;;;;5092443;28;20078;-66
2022/05/25 08:15:53;;;;;;;6.55;4.88;;;17.60;99.90;;;;;;5092107;28;20079;-65
2022/05/25 08:18:20;;;;;;;5.50;4.55;;;17.50;99.90;;;;;;5093565;28;20094;-66
2022/05/25 08:20:45;;;;;;;6.72;4.47;;;17.60;99.90;;;;;;5075102;28;20052;-67
2022/05/25 08:23:14;;;;;;;7.90;5.00;;;17.70;99.90;;;;;;5092659;28;20112;-65
2022/05/25 08:25:40;;;;;;;5.22;4.72;;;17.80;99.90;;;;;;5126371;27;20048;-65
2022/05/25 08:28:06;;;;;;;5.18;4.70;;;17.80;99.90;;;;;;5126684;27;20457;-65
2022/05/25 08:30:34;;;;;;;5.07;4.30;;;17.80;99.90;;;;;;5093757;28;20052;-65
2022/05/25 08:33:00;;;;;;;6.57;4.82;;;17.80;99.90;;;;;;5092719;28;20461;-64
2022/05/25 08:35:30;;;;;;;7.38;3.88;;;17.80;99.90;;;;;;5093626;28;20048;-64
2022/05/25 08:37:57;;;;;;;4.57;4.15;;;17.80;99.90;;;;;;5093474;28;20048;-66
2022/05/25 08:40:24;;;;;;;4.90;4.03;;;17.80;99.90;;;;;;5091948;28;20089;-65
2022/05/25 08:43:24;;;;;;;5.63;4.05;;;17.90;99.90;;;;;;5092005;28;20381;-67
2022/05/25 08:46:02;;;;;;;5.90;4.20;;;18.00;99.90;;;;;;5091708;28;20435;-66
2022/05/25 08:48:29;;;;;;;5.55;4.75;;;18.00;99.90;;;;;;5093222;28;20085;-65
2022/05/25 08:51:01;;;;;;;5.50;4.43;;;18.20;99.90;;;;;;5091302;28;20060;-65
2022/05/25 08:53:27;;;;;;;4.40;4.00;;;18.20;99.90;;;;;;5092671;28;20080;-65
2022/05/25 08:56:15;;;;;;;6.10;4.25;;;18.30;99.90;;;;;;5092797;28;20480;-65
2022/05/25 08:58:59;;;;;;;4.68;3.72;;;18.10;99.90;;;;;;5093215;28;20056;-67
2022/05/25 09:02:10;;;;;;;5.50;3.80;;;18.20;99.90;;;;;;5092339;28;20384;-65
2022/05/25 09:04:52;;;;;;;2.75;2.55;;;18.50;99.90;;;;;;5091587;28;20056;-65
2022/05/25 09:07:37;;;;;;;5.18;3.10;;;18.50;99.90;;;;;;5091197;28;20419;-65
2022/05/25 09:10:03;;;;;;;4.68;2.40;;;18.40;99.90;;;;;;5092018;28;20124;-66
2022/05/25 09:12:34;;;;;;;3.05;2.70;;;18.40;99.90;;;;;;5092210;28;20060;-64
2022/05/25 09:15:20;;;;;;;3.35;2.58;;;18.50;99.90;;;;;;5091847;28;20052;-65
2022/05/25 09:18:09;;;;;;;5.00;2.50;;;18.60;99.90;;;;;;5092918;28;20059;-65
2022/05/25 09:20:44;;;;;;;2.45;2.25;;;18.60;99.90;;;;;;5072910;28;20064;-66
2022/05/25 09:23:12;;;;;;;4.60;3.08;;;18.70;99.90;;;;;;5072689;28;20056;-67
2022/05/25 09:25:40;;;;;;;4.13;2.70;;;18.70;99.90;;;;;;5088396;28;20481;-65
2022/05/25 09:28:12;;;;;;;2.63;2.35;;;18.70;99.90;;;;;;5072718;28;20060;-65
2022/05/25 09:30:41;;;;;;;3.25;2.95;;;18.70;99.90;;;;;;5072880;28;20052;-66
2022/05/25 09:33:14;;;;;;;3.40;3.10;;;18.70;99.90;;;;;;5076577;28;20102;-65
2022/05/25 09:35:46;;;;;;;3.90;3.08;;;18.60;99.90;;;;;;5092475;28;20201;-66
2022/05/25 09:38:32;;;;;;;3.22;2.90;;;18.60;99.90;;;;;;5092792;28;20059;-65
2022/05/25 09:41:04;;;;;;;5.20;3.33;;;18.60;99.90;;;;;;5091629;28;20365;-65
2022/05/25 09:43:30;;;;;;;;;;;18.80;99.90;;;;;;5092536;28;20056;-64
2022/05/25 09:45:58;;;;;;;5.35;3.42;;;18.90;99.90;;;;;;5090695;28;19920;-66
2022/05/25 09:48:24;;;;;;;3.97;3.40;;;19.00;99.90;;;;;;5092190;28;20412;-65
2022/05/25 09:50:52;;;;;;;3.88;3.47;;;18.90;99.90;;;;;;5091305;28;20048;-64
2022/05/25 09:53:21;;;;;;;3.65;3.35;;;18.90;99.90;;;;;;5090697;28;20113;-65
2022/05/25 09:55:53;;;;;;;3.67;3.33;;;18.90;99.90;;;;;;5092371;28;20443;-65
2022/05/25 09:58:24;;;;;;;;;;;18.60;99.90;;;;;;5112081;28;20381;-65
2022/05/25 10:00:57;;;;;;;3.60;3.30;;;18.40;99.90;;;;;;5127466;27;19920;-66
2022/05/25 10:03:27;;;;;;;4.95;4.18;;;18.40;99.90;;;;;;5110778;28;20040;-67
2022/05/25 10:05:56;;;;;;;4.60;3.80;;;18.40;99.90;;;;;;5096370;28;20056;-65
2022/05/25 10:08:36;;;;;;;4.97;3.67;;;18.40;99.90;;;;;;5129027;27;20415;-66
2022/05/25 10:11:14;;;;;;;6.03;3.80;;;18.40;99.90;;;;;;5096153;28;20048;-67
2022/05/25 10:13:41;;;;;;;5.28;3.65;;;18.60;99.90;;;;;;5128877;27;20056;-65
2022/05/25 10:16:40;;;;;;;4.22;3.75;;;18.80;99.90;;;;;;5128443;27;20082;-66
2022/05/25 10:19:12;;;;;;;4.25;3.80;;;18.90;99.90;;;;;;5050764;28;20052;-64
2022/05/25 10:21:38;;;;;;;6.78;4.10;;;18.80;99.90;;;;;;5128873;27;20066;-64
2022/05/25 10:24:15;;;;;;;4.07;3.70;;;18.90;99.90;;;;;;5095855;28;20054;-64
2022/05/25 10:26:50;;;;;;;4.22;3.85;;;18.90;99.90;;;;;;5128846;27;20404;-64
2022/05/25 10:38:40;;;;;;;3.95;3.38;;;18.10;99.90;;;;;;5097476;28;20059;-64
2022/05/25 10:44:03;;;;;;;4.63;3.40;;;18.30;99.90;;;;;;5109785;28;20048;-66
2022/05/25 10:46:30;;;;;;;4.82;3.65;;;18.50;99.90;;;;;;5127612;27;20055;-66
2022/05/25 10:49:07;;;;;;;4.90;3.55;;;18.50;99.90;;;;;;5126888;27;20179;-66
2022/05/25 10:51:44;;;;;;;4.72;3.15;;;18.60;99.90;;;;;;5094151;28;20507;-65
2022/05/25 10:57:26;;;;;;;4.05;1.95;;;19.00;99.90;;;;;;5094709;28;20056;-65
2022/05/25 11:00:19;;;;;;;2.22;1.70;;;19.20;99.90;;;;;;5095579;27;20057;-66
2022/05/25 11:03:25;;;;;;;3.35;1.55;;;19.30;84.00;;;;;;5122738;27;20119;-65
2022/05/25 11:06:10;;;;;;;1.92;1.60;;;19.40;81.70;;;;;;5023439;28;20045;-66
2022/05/25 11:09:05;;;;;;;1.67;1.50;;;19.50;84.80;;;;;;5100671;27;20070;-65
2022/05/25 11:11:43;;;;;;;6.90;2.33;;;19.50;79.40;;;;;;5107019;28;20093;-66
2022/05/25 11:14:32;;;;;;;3.35;2.38;;;19.50;77.30;;;;;;5093216;28;20104;-64
2022/05/25 11:17:26;;;;;;;4.85;2.60;;;19.40;84.20;;;;;;5108926;28;20055;-66
2022/05/25 11:20:04;;;;;;;2.50;2.30;;;19.30;91.00;;;;;;5106885;28;20055;-65
2022/05/25 11:22:51;;;;;;;2.50;2.30;;;19.40;92.30;;;;;;5138546;27;20056;-66
2022/05/25 11:25:28;;;;;;;2.72;2.13;;;19.50;80.10;;;;;;5103795;28;20134;-65
2022/05/25 11:28:24;;;;;;;4.80;2.50;;;19.60;90.20;;;;;;5106882;28;20056;-65
2022/05/25 11:30:52;;;;;;;6.15;3.22;;;19.80;90.40;;;;;;5091902;28;20052;-65
2022/05/25 11:33:26;;;;;;;4.13;3.53;;;19.80;93.60;;;;;;5091748;28;20052;-67
2022/05/25 11:36:02;;;;;;;5.35;2.90;;;19.70;96.90;;;;;;5092646;28;20070;-66
2022/05/25 11:38:42;;;;;;;3.85;3.20;;;19.60;93.20;;;;;;5093356;28;20044;-65
2022/05/25 11:41:28;;;;;;;3.15;2.60;;;19.40;98.20;;;;;;5091581;28;20135;-65
2022/05/25 11:44:09;;;;;;;3.78;2.78;;;19.50;95.40;;;;;;5095328;28;20044;-65
2022/05/25 11:46:46;;;;;;;4.20;3.80;;;19.40;93.20;;;;;;5092861;28;20051;-65
2022/05/25 11:49:55;;;;;;;4.18;3.78;;;19.30;95.80;;;;;;5090199;28;20063;-65
2022/05/25 11:52:37;;;;;;;3.70;3.38;;;19.00;99.90;;;;;;5082250;28;20076;-65
2022/05/25 11:55:22;;;;;;;4.83;3.70;;;19.00;99.90;;;;;;5085185;28;20119;-65
2022/05/25 11:57:56;;;;;;;4.32;3.50;;;18.70;99.90;;;;;;5086492;28;20484;-66
2022/05/25 12:00:53;;;;;;;5.43;4.93;;;18.20;99.90;;;;;;5095453;28;20440;-64
2022/05/25 12:03:38;;;;;;;6.30;5.70;;;18.00;99.90;;;;;;5098562;28;20071;-66
2022/05/25 12:06:25;;;;;;;9.30;6.75;;;17.20;99.90;;;;;;5098600;28;20131;-66
2022/05/25 12:09:12;;;;;;;7.13;6.40;;;16.60;99.90;;;;;;5083718;28;20105;-66
2022/05/25 12:11:38;;;;;;;8.60;7.40;;;16.30;99.90;;;;;;5083740;28;20111;-66
2022/05/25 12:14:39;;;;;;;10.07;8.30;;;16.10;99.90;;;;;;5088068;28;20523;-66
2022/05/25 12:17:27;;;;;;;8.60;7.72;;;16.10;99.90;;;;;;5092782;28;20056;-65
2022/05/25 12:19:55;;;;;;;8.82;7.80;;;16.30;99.90;;;;;;5091821;28;20609;-65
2022/05/25 12:22:27;;;;;;;8.57;7.75;;;16.60;99.90;;;;;;5093045;28;20090;-65
2022/05/25 12:24:57;;;;;;;8.38;7.57;;;16.90;99.90;;;;;;5086292;28;20052;-66
2022/05/25 12:27:30;;;;;;;9.65;7.43;;;17.30;99.90;;;;;;5112223;28;20055;-64
2022/05/25 12:30:05;;;;;;;7.05;6.32;;;17.50;99.90;;;;;;5107972;28;20047;-65
2022/05/25 12:32:31;;;;;;;6.13;5.38;;;17.70;99.90;;;;;;5099477;28;20917;-65
2022/05/25 12:34:57;;;;;;;4.15;2.85;;;17.90;99.90;;;;;;5127249;27;20047;-64
2022/05/25 12:37:42;;;;;;;7.55;2.63;;;17.90;99.90;;;;;;5105242;28;20457;-64
2022/05/25 12:40:14;;;;;;;6.53;2.92;;;18.00;99.90;;;;;;5072064;28;20060;-65
2022/05/25 12:42:43;;;;;;;3.42;2.90;;;18.10;99.90;;;;;;5088599;28;20060;-65
2022/05/25 12:48:38;;;;;;;4.15;3.33;;;17.80;99.90;;;;;;5104533;28;20052;-65
2022/05/25 12:51:09;;;;;;;7.22;2.60;;;17.60;99.90;;;;;;5083303;28;20473;-65
2022/05/25 12:53:54;;;;;;;5.45;2.60;;;17.40;99.90;;;;;;5091268;28;20048;-66
2022/05/25 12:56:21;;;;;;;5.78;2.38;;;17.30;99.90;;;;;;5092857;28;20052;-65
2022/05/25 12:58:46;;;;;;;6.30;2.00;;;17.40;99.90;;;;;;5124664;27;20123;-65
2022/05/25 13:01:25;;;;;;;3.53;1.77;;;17.30;99.90;;;;;;5096252;27;20451;-66
2022/05/25 13:03:51;;;;;;;4.38;1.70;;;17.30;99.90;;;;;;5088369;28;20049;-65
2022/05/25 13:06:21;;;;;;;4.85;1.70;;;17.30;99.90;;;;;;5072207;28;20048;-66
2022/05/25 13:08:47;;;;;;;3.25;1.60;;;17.50;99.90;;;;;;5126459;27;20047;-67
2022/05/25 13:11:43;;;;;;;3.92;1.50;;;17.60;99.90;;;;;;5092418;28;20549;-66
2022/05/25 13:14:18;;;;;;;4.75;1.70;;;17.80;99.90;;;;;;5106612;28;20068;-63
2022/05/25 13:16:48;;;;;;;6.45;1.38;;;18.00;99.90;;;;;;5105483;28;20048;-64
2022/05/25 13:19:32;;;;;;;3.25;1.30;;;18.20;99.90;;;;;;5092854;28;20120;-66
2022/05/25 13:22:02;;;;;;;2.70;1.17;;;18.50;99.90;;;;;;5091237;28;20048;-64
2022/05/25 13:25:05;;;;;;;6.68;1.95;;;18.60;99.90;;;;;;5091858;28;20047;-65
2022/05/25 13:27:58;;;;;;;3.15;1.10;;;18.70;99.90;;;;;;5094811;28;20052;-65
2022/05/25 13:30:32;;;;;;;;;;;18.50;99.90;;;;;;5092539;28;20094;-64
2022/05/25 13:33:15;;;;;;;3.20;1.00;;;18.70;99.90;;;;;;5110998;28;19919;-65
2022/05/25 13:35:53;;;;;;;3.50;1.00;;;18.90;99.90;;;;;;5148080;27;20051;-66
2022/05/25 13:38:35;;;;;;;2.97;0.93;;;19.20;99.90;;;;;;5095986;28;20056;-65
2022/05/25 13:41:23;;;;;;;4.03;0.80;;;19.30;92.00;;;;;;5096663;28;20060;-64
2022/05/25 13:43:57;;;;;;;3.60;1.17;;;19.30;90.40;;;;;;5132881;27;20120;-66
2022/05/25 13:46:41;;;;;;;2.55;1.00;;;19.40;97.60;;;;;;5148814;27;20090;-65
2022/05/25 13:49:27;;;;;;;2.47;0.98;;;19.50;97.60;;;;;;5114269;28;20097;-64
2022/05/25 13:52:21;;;;;;;2.85;1.00;;;19.50;95.60;;;;;;5112750;27;20123;-65